• Join FlightAware (Why Join?)
  • Login
  • US Flag 
08:24AM EDT


 

Airport Tracker/Info


-or-


 

Live Flight TrackerFlight Track Log ✈ AAY876 ✈ 12-Apr-2014 ✈ KPIE - KRFD

Flight Track Log - Related Links

Times and Time Zones

All times are in EDT time to prevent confusion due to time zone crossing. See the AAY876 flight status page for this flight to view local times or setup timezone preferences in your user account.

Time Position Orientation Groundspeed Altitude Reporting Facility
EDT Latitude Longitude Course Direction KTS MPH feet Rate Location/Type
02:55PM 27.9833 -82.6833 24° Northeast 205 236 2,400  Level Tampa TRACON
02:56PM 28.0500 -82.6500 24° Northeast 260 299 4,500 2,400 Climbing Tampa TRACON
02:57PM 28.1167 -82.6500 360° North 285 328 7,200 2,700 Climbing Tampa TRACON
02:58PM 28.2000 -82.6667 350° North 291 335 10,000 1,860 Climbing Tampa TRACON
03:00PM 28.3981 -82.7344 343° North 332 382 13,300 1,740 Climbing Jacksonville Center
03:01PM 28.4964 -82.7603 347° North 347 399 15,700 2,220 Climbing Jacksonville Center
03:02PM 28.5986 -82.7861 347° North 358 412 17,800 1,980 Climbing Jacksonville Center
03:02PM 28.6388 -82.7945 347° North 388 447 18,400 1,560 Climbing FlightAware ADS-B (KMCO)
03:03PM 28.7008 -82.8144 346° North 368 423 19,400 1,140 Climbing Jacksonville Center
03:04PM 28.8114 -82.8428 347° North 380 437 20,300 1,200 Climbing Jacksonville Center
03:05PM 28.9264 -82.8711 348° North 400 460 21,800 1,680 Climbing Jacksonville Center
03:06PM 29.0431 -82.9019 347° North 414 476 23,700 1,620 Climbing Jacksonville Center
03:07PM 29.1622 -82.9331 347° North 419 482 25,100 1,320 Climbing Jacksonville Center
03:08PM 29.2811 -82.9639 347° North 435 501 26,400 1,500 Climbing Jacksonville Center
03:09PM 29.4022 -82.9975 346° North 435 501 28,100 1,380 Climbing Jacksonville Center
03:10PM 29.5086 -83.0286 346° North 430 495 29,200 960 Climbing Jacksonville Center
03:11PM 29.6297 -83.0647 345° North 435 501 30,100 1,200 Climbing Jacksonville Center
03:12PM 29.7547 -83.1222 338° Northwest 435 501 31,600 1,380 Climbing Jacksonville Center
03:13PM 29.8633 -83.1728 338° Northwest 430 495 32,900 1,200 Climbing Jacksonville Center
03:14PM 29.9781 -83.2258 338° Northwest 432 497 34,100 1,080 Climbing Jacksonville Center
03:15PM 30.0781 -83.2719 338° Northwest 432 497 35,100 900 Climbing Jacksonville Center
03:16PM 30.1886 -83.3228 338° Northwest 432 497 35,900 420 Climbing Jacksonville Center
03:17PM 30.3011 -83.3761 338° Northwest 432 497 36,000  Climbing Jacksonville Center
03:18PM 30.4094 -83.4250 339° North 432 497 35,900  Descending Jacksonville Center
03:19PM 30.5178 -83.4761 338° Northwest 427 491 36,000  Climbing Jacksonville Center
03:20PM 30.6303 -83.5300 338° Northwest 427 491 36,000  Level Jacksonville Center
03:21PM 30.7450 -83.5839 338° Northwest 421 484 36,000  Level Jacksonville Center
03:22PM 30.8553 -83.6378 337° Northwest 421 484 36,000  Level Jacksonville Center
03:23PM 30.9656 -83.6897 338° Northwest 416 479 36,000  Level Jacksonville Center
03:24PM 31.0739 -83.7439 337° Northwest 416 479 36,000  Level Jacksonville Center
03:25PM 31.1842 -83.7958 338° Northwest 416 479 36,000  Level Jacksonville Center
03:26PM 31.2944 -83.8481 338° Northwest 416 479 36,000  Level Jacksonville Center
03:27PM 31.4022 -83.9028 337° Northwest 415 478 36,000  Level Atlanta Center
03:28PM 31.5128 -83.9536 339° North 420 483 36,000  Level Atlanta Center
03:29PM 31.6403 -83.9900 346° North 420 483 36,000  Level Atlanta Center
03:30PM 31.7611 -84.0169 349° North 420 483 36,000  Level Atlanta Center
03:31PM 31.8781 -84.0389 351° North 426 490 36,000  Level Atlanta Center
03:32PM 31.9950 -84.0658 349° North 426 490 36,000  Level Atlanta Center
03:33PM 32.1161 -84.0928 349° North 426 490 36,000  Level Atlanta Center
03:34PM 32.2350 -84.1175 350° North 432 497 36,000  Level Atlanta Center
03:35PM 32.3539 -84.1444 349° North 432 497 36,000  Level Atlanta Center
03:36PM 32.4708 -84.1719 349° North 432 497 36,000  Level Atlanta Center
03:37PM 32.5897 -84.1992 349° North 432 497 36,000  Level Atlanta Center
03:38PM 32.7108 -84.2264 349° North 432 497 36,000  Level Atlanta Center
03:39PM 32.8172 -84.2539 348° North 432 497 36,000  Level Atlanta Center
03:40PM 32.9467 -84.2814 350° North 432 497 36,000  Level Atlanta Center
03:41PM 33.0675 -84.3089 349° North 432 497 36,000  Level Atlanta Center
03:42PM 33.1844 -84.3367 349° North 426 490 36,000  Level Atlanta Center
03:48PM 33.9110 -84.5033 349° North 429 494 36,000  Level FlightAware ADS-B (KDZJ)
03:49PM 33.9897 -84.5224 349° North 430 495 36,000  Level FlightAware ADS-B (KDZJ)
03:49PM 34.0686 -84.5416 349° North 429 494 36,000  Level FlightAware ADS-B (KDZJ)
03:50PM 34.1455 -84.5604 349° North 429 494 36,000  Level FlightAware ADS-B (KDZJ)
03:51PM 34.2208 -84.5857 343° North 424 488 36,000  Level FlightAware ADS-B (KDZJ)
03:51PM 34.2968 -84.6134 343° North 424 488 36,000  Level FlightAware ADS-B (KDZJ)
03:52PM 34.3711 -84.6401 343° North 417 480 36,000  Level FlightAware ADS-B (KDZJ)
03:53PM 34.4478 -84.6677 343° North 417 480 36,000  Level FlightAware ADS-B (KDZJ)
03:53PM 34.5224 -84.6947 343° North 417 480 36,000  Level FlightAware ADS-B (KDZJ)
03:54PM 34.5989 -84.7224 343° North 418 481 36,000  Level FlightAware ADS-B (KDZJ)
03:55PM 34.6733 -84.7495 343° North 418 481 36,000  Level FlightAware ADS-B (KDZJ)
03:55PM 34.7505 -84.7776 343° North 419 482 36,000  Level FlightAware ADS-B (KDZJ)
03:56PM 34.8249 -84.8047 343° North 418 481 36,000  Level FlightAware ADS-B (KDZJ)
03:57PM 34.9000 -84.8321 343° North 418 481 36,000  Level FlightAware ADS-B (KDZJ)
03:57PM 34.9772 -84.8604 343° North 418 481 36,000  Level FlightAware ADS-B (KDZJ)
03:58PM 35.0494 -84.8868 343° North 419 482 36,000  Level FlightAware ADS-B (KDZJ)
03:59PM 35.0469 -84.8859 343° North 426 490 36,000  Level FlightAware ADS-B (KMDQ)
03:59PM 35.1839 -84.9361 343° North 427 491 36,000  Level FlightAware ADS-B (KMDQ)
04:00PM 35.2603 -84.9641 343° North 429 494 36,000  Level FlightAware ADS-B (KMDQ)
04:01PM 35.3357 -84.9920 343° North 430 495 36,000  Level FlightAware ADS-B (KMDQ)
04:01PM 35.3888 -85.0118 343° North 429 494 36,000  Level FlightAware ADS-B (KMDQ)
04:02PM 35.5271 -85.0632 343° North 426 490 36,000  Level FlightAware ADS-B (KMDQ)
04:03PM 35.6011 -85.0907 343° North 426 490 36,000  Level FlightAware ADS-B (KMDQ)
04:04PM 35.6766 -85.1188 343° North 425 489 36,000  Level FlightAware ADS-B (KMDQ)
04:04PM 35.7518 -85.1470 343° North 423 487 36,000  Level FlightAware ADS-B (KMDQ)
04:05PM 35.8266 -85.1749 343° North 423 487 36,000  Level FlightAware ADS-B (KMDQ)
04:06PM 35.8812 -85.1954 343° North 424 488 36,000  Level FlightAware ADS-B (KMDQ)
04:06PM 35.9780 -85.2319 343° North 424 488 36,000  Level FlightAware ADS-B (KMDQ)
04:07PM 36.0514 -85.2595 343° North 422 486 36,000  Level FlightAware ADS-B (KMDQ)
04:08PM 36.1237 -85.2866 343° North 422 486 36,000  Level FlightAware ADS-B (KMDQ)
04:08PM 36.1992 -85.3152 343° North 423 487 36,000  Level FlightAware ADS-B (KMDQ)
04:09PM 36.2760 -85.3443 343° North 424 488 36,000  Level FlightAware ADS-B (KMDQ)
04:10PM 36.3457 -85.3707 343° North 423 487 36,000  Level FlightAware ADS-B (KMDQ)
04:10PM 36.4116 -85.3957 343° North 422 486 36,000  Level FlightAware ADS-B (KMDQ)
04:11PM 36.4958 -85.4277 343° North 421 484 36,000  Level FlightAware ADS-B (KMDQ)
04:12PM 36.5716 -85.4568 343° North 421 484 36,000  Level FlightAware ADS-B (KMDQ)
04:13PM 36.6799 -85.4983 343° North 422 486 36,000  Level FlightAware ADS-B (KBRY)
04:15PM 36.5772 -85.4590 343° North 423 487 36,000  Level FlightAware ADS-B
04:17PM 37.2278 -85.7098 343° North 425 489 36,000  Level FlightAware ADS-B
04:18PM 37.3111 -85.7423 343° North 424 488 36,000  Level FlightAware ADS-B
04:19PM 37.3788 -85.7687 343° North 423 487 36,000  Level FlightAware ADS-B
04:19PM 37.4486 -85.7960 343° North 422 486 36,000  Level FlightAware ADS-B
04:20PM 37.5412 -85.8323 343° North 422 486 36,000  Level FlightAware ADS-B
04:21PM 37.6096 -85.8590 343° North 421 484 36,000  Level FlightAware ADS-B
04:22PM 37.6858 -85.8891 343° North 420 483 36,000  Level FlightAware ADS-B (KBRY)
04:22PM 37.7522 -85.9154 343° North 420 483 36,000  Level FlightAware ADS-B
04:23PM 37.8369 -85.9489 343° North 421 484 36,000  Level FlightAware ADS-B
04:23PM 37.8949 -85.9718 343° North 422 486 36,000  Level FlightAware ADS-B
04:24PM 37.9598 -85.9975 343° North 422 486 36,000  Level FlightAware ADS-B
04:24PM 38.0172 -86.0203 343° North 423 487 36,000  Level FlightAware ADS-B
04:25PM 38.0782 -86.0446 343° North 423 487 36,000  Level FlightAware ADS-B
04:26PM 38.1461 -86.0717 343° North 423 487 36,000  Level FlightAware ADS-B
04:26PM 38.2069 -86.0960 343° North 424 488 36,000  Level FlightAware ADS-B
04:27PM 38.2964 -86.1319 343° North 425 489 36,000  Level FlightAware ADS-B
04:28PM 38.3615 -86.1580 343° North 425 489 36,000  Level FlightAware ADS-B
04:28PM 38.4050 -86.1754 343° North 425 489 36,000  Level FlightAware ADS-B (KCVG)
04:29PM 38.5082 -86.2169 343° North 424 488 36,000  Level FlightAware ADS-B
04:30PM 38.5854 -86.2482 342° North 423 487 36,000  Level FlightAware ADS-B (KBRY)
04:31PM 38.7023 -86.2955 343° North 423 487 36,000  Level FlightAware ADS-B
04:32PM 38.8153 -86.3414 342° North 424 488 36,000  Level FlightAware ADS-B
04:33PM 38.9366 -86.3908 342° North 423 487 36,000  Level FlightAware ADS-B
04:34PM 38.9992 -86.4164 342° North 423 487 36,000  Level FlightAware ADS-B (KBRY)
04:36PM 39.2578 -86.5227 342° North 421 484 36,000  Level FlightAware ADS-B (KCVG)
04:37PM 39.3444 -86.5769 342° North 422 486 36,000  Level Chicago Center
04:42PM 39.9027 -87.0054 329° Northwest 412 474 36,000  Level FlightAware ADS-B (KMDW)
04:43PM 39.9580 -87.0484 329° Northwest 413 475 36,000  Level FlightAware ADS-B (KMDW)
04:43PM 40.0201 -87.0967 329° Northwest 413 475 36,000  Level FlightAware ADS-B (KMDW)
04:44PM 40.0882 -87.1498 329° Northwest 415 478 36,000  Level FlightAware ADS-B (KMDW)
04:45PM 40.1661 -87.2107 329° Northwest 415 478 36,000  Level FlightAware ADS-B (KMDW)
04:45PM 40.2251 -87.2611 318° Northwest 409 471 36,000  Level FlightAware ADS-B (KMDW)
04:46PM 40.2985 -87.3594 314° West 407 468 36,000  Level FlightAware ADS-B (KMDW)
04:47PM 40.3369 -87.4106 314° West 407 468 36,000  Level FlightAware ADS-B (KMDW)
04:47PM 40.3792 -87.4673 314° West 406 467 36,000  Level FlightAware ADS-B (KMDW)
04:48PM 40.4214 -87.5240 314° West 405 466 36,000  Level FlightAware ADS-B (KMDW)
04:48PM 40.4714 -87.5916 314° West 407 468 36,000  Level FlightAware ADS-B (KMDW)
04:49PM 40.5237 -87.6623 314° West 406 467 36,000  Level FlightAware ADS-B (KMDW)
04:50PM 40.5814 -87.7406 314° West 406 467 36,000 -480 Level FlightAware ADS-B (KMDW)
04:50PM 40.6307 -87.8076 314° West 403 464 35,400 -2,160 Descending FlightAware ADS-B (KMDW)
04:51PM 40.6847 -87.8810 314° West 409 471 33,200 -2,400 Descending FlightAware ADS-B (KMDW)
04:52PM 40.7378 -87.9535 314° West 407 468 32,200 -960 Descending FlightAware ADS-B (KMDW)
04:52PM 40.7823 -88.0143 314° West 405 466 32,000 -240 Descending FlightAware ADS-B (KMDW)
04:53PM 40.8211 -88.0675 314° West 405 466 32,000 -240 Level FlightAware ADS-B (KMDW)
04:53PM 40.8614 -88.1230 314° West 401 461 31,800 -720 Descending FlightAware ADS-B (KMDW)
04:54PM 40.8994 -88.1755 314° West 405 466 31,300 -1,020 Descending FlightAware ADS-B (KMDW)
04:54PM 40.9388 -88.2298 314° West 399 459 30,800 -960 Descending FlightAware ADS-B (KMDW)
04:55PM 41.0032 -88.3185 314° West 394 453 30,000 -1,020 Descending FlightAware ADS-B (KMDW)
04:56PM 41.0408 -88.3706 314° West 392 451 29,500 -1,500 Descending FlightAware ADS-B (KMDW)
04:56PM 41.0415 -88.3716 314° West 392 451 28,500 -2,160 Descending FlightAware ADS-B (KPWK)
04:57PM 41.1175 -88.4771 314° West 392 451 27,300 -2,220 Descending FlightAware ADS-B (KPWK)
04:57PM 41.1651 -88.5435 313° West 379 436 25,900 -2,160 Descending FlightAware ADS-B (KMDW)
04:58PM 41.2063 -88.6007 314° West 371 427 24,600 -2,160 Descending FlightAware ADS-B (KMDW)
04:59PM 41.2654 -88.6835 313° West 364 419 22,900 -2,100 Descending FlightAware ADS-B (KMDW)
04:59PM 41.3039 -88.7376 313° West 357 411 21,800 -2,040 Descending FlightAware ADS-B (KPWK)
05:00PM 41.3340 -88.7802 313° West 353 406 20,700 -1,920 Descending FlightAware ADS-B (KMDW)
05:01PM 41.3858 -88.8529 313° West 345 397 19,500 -1,860 Descending FlightAware ADS-B (KMDW)
05:01PM 41.4385 -88.9275 313° West 338 389 18,000 -1,620 Descending FlightAware ADS-B (KMDW)
05:02PM 41.4706 -88.9727 313° West 328 377 17,400 -1,500 Descending FlightAware ADS-B (KMDW)
05:03PM 41.5149 -89.0351 313° West 326 375 16,200 -1,740 Descending FlightAware ADS-B (KMDW)
05:03PM 41.5432 -89.0753 313° West 324 373 15,400 -1,680 Descending FlightAware ADS-B (KMDW)
05:04PM 41.5750 -89.1205 313° West 322 371 14,500 -1,800 Descending FlightAware ADS-B (KMDW)
05:04PM 41.6088 -89.1686 313° West 321 369 13,600 -1,260 Descending FlightAware ADS-B (KMDW)
05:05PM 41.6299 -89.1990 313° West 320 368 13,200 -360 Descending FlightAware ADS-B (KPWK)
05:06PM 41.6989 -89.2839 338° Northwest 329 379 13,100 -720 Descending FlightAware ADS-B (KMDW)
05:06PM 41.7359 -89.2894 14° North 342 394 12,300 -1,740 Descending FlightAware ADS-B (KPWK)
05:09PM 41.9663 -89.1936 17° North 311 358 7,800 -1,860 Descending FlightAware ADS-B (KMDW)
05:09PM 42.0138 -89.1738 17° North 314 361 6,200 -2,100 Descending FlightAware ADS-B (KMDW)
05:10PM 42.0950 -89.1400 17° North 306 352 4,200 -1,200 Descending Chicago Center
05:11PM 42.1706 -89.1144 14° North 291 335 3,700 -600 Descending Chicago Center
05:13PM 42.2364 -89.1286 351° North 248 285 3,000 -360 Descending Chicago Center
05:14PM 42.3075 -89.1506 347° North 228 262 3,000  Level Chicago Center
05:15PM 42.3358 -89.0967 55° Northeast 226 260 3,000 -60 Level Chicago Center
05:16PM 42.3050 -89.0744 152° Southeast 167 192 2,900 -300 Descending Chicago Center
05:17PM 42.2717 -89.0792 186° South 154 177 2,500 -420 Descending Chicago Center